Time,TemperatureF,DewpointF,PressureIn,WindDirection,WindDirectionDegrees,WindSpeedMPH,WindSpeedGustMPH,Humidity,HourlyPrecipIn,Conditions,Clouds,dailyrainin,SolarRadiationWatts/m^2,SoftwareType,DateUTC
2013-05-22 00:01:00,65.0,32.0,29.65,SSE,156,24.0,33.0,29,-99.99,,,-99.99,-0.100000,,2013-05-22 06:01:00,
2013-05-22 00:11:00,65.0,32.0,29.65,SSE,155,22.0,30.0,30,-99.99,,,-99.99,-0.100000,,2013-05-22 06:11:00,
2013-05-22 00:21:00,65.0,32.0,29.65,SSE,154,23.0,28.0,29,-99.99,,,-99.99,-0.100000,,2013-05-22 06:21:00,
2013-05-22 00:31:00,65.0,32.0,29.65,SSE,159,25.0,34.0,28,-99.99,,,-99.99,-0.100000,,2013-05-22 06:31:00,
2013-05-22 00:41:00,66.0,32.0,29.64,SSE,157,25.0,34.0,27,-99.99,,,-99.99,-0.100000,,2013-05-22 06:41:00,
2013-05-22 00:52:00,66.0,32.0,29.64,SSE,160,25.0,33.0,27,-99.99,,,-99.99,-0.100000,,2013-05-22 06:52:00,
2013-05-22 01:01:00,66.0,32.0,29.65,SSE,167,22.0,32.0,28,-99.99,,,-99.99,0.000000,,2013-05-22 07:01:00,
2013-05-22 01:11:00,65.0,32.0,29.64,SSE,160,24.0,31.0,28,-99.99,,,-99.99,0.000000,,2013-05-22 07:11:00,
2013-05-22 01:21:00,66.0,31.0,29.64,SSE,164,20.0,31.0,27,-99.99,,,-99.99,-0.100000,,2013-05-22 07:21:00,
2013-05-22 01:31:00,66.0,32.0,29.67,WSW,250,6.0,10.0,28,-99.99,,,-99.99,0.000000,,2013-05-22 07:31:00,
2013-05-22 01:41:00,64.0,33.0,29.67,SW,231,8.0,12.0,31,-99.99,,,-99.99,0.000000,,2013-05-22 07:41:00,
2013-05-22 01:52:00,63.0,33.0,29.68,NE,43,4.0,6.0,32,-99.99,,,-99.99,0.000000,,2013-05-22 07:52:00,
2013-05-22 02:02:00,63.0,33.0,29.68,NW,304,9.0,13.0,32,-99.99,,,-99.99,-0.100000,,2013-05-22 08:02:00,
2013-05-22 02:11:00,63.0,35.0,29.67,North,3,8.0,13.0,36,-99.99,,,-99.99,0.000000,,2013-05-22 08:11:00,
2013-05-22 02:21:00,61.0,35.0,29.66,NNE,20,9.0,11.0,38,-99.99,,,-99.99,-0.100000,,2013-05-22 08:21:00,
2013-05-22 02:31:00,61.0,35.0,29.67,NNW,337,8.0,9.0,38,-99.99,,,-99.99,0.000000,,2013-05-22 08:31:00,
2013-05-22 02:41:00,62.0,34.0,29.68,West,272,6.0,9.0,35,-99.99,,,-99.99,-0.100000,,2013-05-22 08:41:00,
2013-05-22 02:51:00,61.0,36.0,29.67,SSE,149,4.0,6.0,38,-99.99,,,-99.99,-0.100000,,2013-05-22 08:51:00,
2013-05-22 03:01:00,61.0,35.0,29.66,ENE,62,7.0,13.0,37,-99.99,,,-99.99,0.100000,,2013-05-22 09:01:00,
2013-05-22 03:11:00,60.0,34.0,29.66,SE,138,6.0,8.0,37,-99.99,,,-99.99,-0.100000,,2013-05-22 09:11:00,
2013-05-22 03:21:00,56.0,37.0,29.67,SW,218,8.0,11.0,49,-99.99,,,-99.99,0.000000,,2013-05-22 09:21:00,
2013-05-22 03:32:00,53.0,39.0,29.66,SSE,151,5.0,9.0,58,-99.99,,,-99.99,0.000000,,2013-05-22 09:32:00,
2013-05-22 03:42:00,54.0,37.0,29.66,South,179,6.0,8.0,52,-99.99,,,-99.99,0.000000,,2013-05-22 09:42:00,
2013-05-22 03:53:00,52.0,38.0,29.66,SSW,198,12.0,19.0,57,-99.99,,,-99.99,-0.100000,,2013-05-22 09:53:00,
2013-05-22 04:02:00,54.0,36.0,29.68,SW,217,17.0,19.0,50,-99.99,,,-99.99,-0.100000,,2013-05-22 10:02:00,
2013-05-22 04:12:00,53.0,34.0,29.68,SSW,209,14.0,18.0,49,-99.99,,,-99.99,-0.100000,,2013-05-22 10:12:00,
2013-05-22 04:32:00,52.0,31.0,29.69,SSW,202,14.0,16.0,45,-99.99,,,-99.99,-0.100000,,2013-05-22 10:32:00,
2013-05-22 04:42:00,52.0,31.0,29.69,SSW,205,16.0,22.0,43,-99.99,,,-99.99,-0.100000,,2013-05-22 10:42:00,
2013-05-22 04:52:00,52.0,29.0,29.69,SW,217,17.0,22.0,41,-99.99,,,-99.99,-0.100000,,2013-05-22 10:52:00,
2013-05-22 05:02:00,51.0,29.0,29.70,SW,219,19.0,27.0,42,-99.99,,,-99.99,-0.100000,,2013-05-22 11:02:00,
2013-05-22 05:11:00,51.0,29.0,29.70,SW,219,17.0,22.0,42,-99.99,,,-99.99,-0.100000,,2013-05-22 11:11:00,
2013-05-22 05:21:00,50.0,29.0,29.70,SW,219,16.0,21.0,44,-99.99,,,-99.99,-0.200000,,2013-05-22 11:21:00,
2013-05-22 05:32:00,49.0,29.0,29.70,SW,228,14.0,20.0,46,-99.99,,,-99.99,-0.100000,,2013-05-22 11:32:00,
2013-05-22 05:41:00,49.0,30.0,29.71,SW,222,17.0,24.0,47,-99.99,,,-99.99,-0.100000,,2013-05-22 11:41:00,
2013-05-22 05:52:00,49.0,31.0,29.72,SW,225,15.0,20.0,50,-99.99,,,-99.99,0.000000,,2013-05-22 11:52:00,
2013-05-22 06:02:00,48.0,31.0,29.72,SW,222,12.0,17.0,53,-99.99,,,-99.99,0.200000,,2013-05-22 12:02:00,
2013-05-22 06:11:00,48.0,31.0,29.72,SW,225,15.0,19.0,53,-99.99,,,-99.99,1.800000,,2013-05-22 12:11:00,
2013-05-22 06:22:00,47.0,32.0,29.73,SW,228,17.0,21.0,54,-99.99,,,-99.99,5.100000,,2013-05-22 12:22:00,
2013-05-22 06:32:00,47.0,32.0,29.73,SW,228,19.0,25.0,55,-99.99,,,-99.99,13.900000,,2013-05-22 12:32:00,
2013-05-22 06:42:00,46.0,32.0,29.73,SW,228,20.0,26.0,56,-99.99,,,-99.99,37.799999,,2013-05-22 12:42:00,
2013-05-22 06:52:00,46.0,32.0,29.73,SW,222,15.0,20.0,56,-99.99,,,-99.99,63.000000,,2013-05-22 12:52:00,
2013-05-22 07:01:00,46.0,32.0,29.74,SSW,212,17.0,21.0,58,-99.99,,,-99.99,60.200001,,2013-05-22 13:01:00,
2013-05-22 07:11:00,46.0,32.0,29.74,SW,216,18.0,22.0,57,-99.99,,,-99.99,84.500000,,2013-05-22 13:11:00,
2013-05-22 07:21:00,46.0,32.0,29.73,SW,222,17.0,22.0,56,-99.99,,,-99.99,109.800003,,2013-05-22 13:21:00,
2013-05-22 07:31:00,46.0,32.0,29.73,SW,224,14.0,19.0,57,-99.99,,,-99.99,100.900002,,2013-05-22 13:31:00,
2013-05-22 07:41:00,46.0,32.0,29.74,SW,222,15.0,20.0,58,-99.99,,,-99.99,150.899994,,2013-05-22 13:41:00,
2013-05-22 07:52:00,47.0,33.0,29.74,SW,214,16.0,22.0,57,-99.99,,,-99.99,189.199997,,2013-05-22 13:52:00,
2013-05-22 08:02:00,47.0,32.0,29.75,SW,219,18.0,22.0,56,-99.99,,,-99.99,164.300003,,2013-05-22 14:02:00,
2013-05-22 08:11:00,46.0,32.0,29.76,SW,222,15.0,21.0,57,-99.99,,,-99.99,131.699997,,2013-05-22 14:11:00,
2013-05-22 08:21:00,46.0,32.0,29.76,SW,220,14.0,19.0,57,-99.99,,,-99.99,167.399994,,2013-05-22 14:21:00,
2013-05-22 08:32:00,47.0,33.0,29.76,SW,217,13.0,16.0,57,-99.99,,,-99.99,279.799988,,2013-05-22 14:32:00,
2013-05-22 08:41:00,47.0,32.0,29.76,SW,222,14.0,18.0,55,-99.99,,,-99.99,260.399994,,2013-05-22 14:41:00,
2013-05-22 08:52:00,47.0,32.0,29.76,SW,222,15.0,19.0,56,-99.99,,,-99.99,225.899994,,2013-05-22 14:52:00,
2013-05-22 09:01:00,47.0,32.0,29.76,SW,225,14.0,20.0,55,-99.99,,,-99.99,248.300003,,2013-05-22 15:01:00,
2013-05-22 09:11:00,47.0,32.0,29.76,SW,217,17.0,22.0,55,-99.99,,,-99.99,280.399994,,2013-05-22 15:11:00,
2013-05-22 09:21:00,47.0,32.0,29.76,SW,219,17.0,20.0,55,-99.99,,,-99.99,255.800003,,2013-05-22 15:21:00,
2013-05-22 09:32:00,47.0,32.0,29.77,SW,223,15.0,21.0,55,-99.99,,,-99.99,297.299988,,2013-05-22 15:32:00,
2013-05-22 09:42:00,47.0,32.0,29.77,SW,225,16.0,20.0,56,-99.99,,,-99.99,317.100006,,2013-05-22 15:42:00,
2013-05-22 09:53:00,47.0,32.0,29.77,SW,229,16.0,21.0,55,-99.99,,,-99.99,303.000000,,2013-05-22 15:53:00,
2013-05-22 10:02:00,47.0,32.0,29.77,SW,227,16.0,22.0,55,-99.99,,,-99.99,306.600006,,2013-05-22 16:02:00,
2013-05-22 10:12:00,47.0,32.0,29.77,SW,228,14.0,18.0,54,-99.99,,,-99.99,333.399994,,2013-05-22 16:12:00,
2013-05-22 10:22:00,48.0,32.0,29.78,SW,224,16.0,24.0,53,-99.99,,,-99.99,413.600006,,2013-05-22 16:22:00,
2013-05-22 10:32:00,48.0,31.0,29.78,WSW,241,16.0,20.0,52,-99.99,,,-99.99,403.100006,,2013-05-22 16:32:00,
2013-05-22 10:42:00,48.0,31.0,29.78,SW,233,18.0,25.0,50,-99.99,,,-99.99,461.299988,,2013-05-22 16:42:00,
2013-05-22 10:52:00,48.0,31.0,29.79,SW,232,16.0,22.0,50,-99.99,,,-99.99,470.899994,,2013-05-22 16:52:00,
2013-05-22 11:02:00,49.0,30.0,29.79,SW,232,20.0,24.0,48,-99.99,,,-99.99,518.700012,,2013-05-22 17:02:00,
2013-05-22 11:11:00,49.0,31.0,29.79,SW,232,18.0,23.0,49,-99.99,,,-99.99,475.700012,,2013-05-22 17:11:00,
2013-05-22 11:22:00,49.0,30.0,29.79,WSW,243,19.0,25.0,47,-99.99,,,-99.99,489.399994,,2013-05-22 17:22:00,
2013-05-22 11:32:00,50.0,32.0,29.79,WSW,238,17.0,24.0,48,-99.99,,,-99.99,586.599976,,2013-05-22 17:32:00,
2013-05-22 11:42:00,49.0,30.0,29.80,SW,236,19.0,24.0,48,-99.99,,,-99.99,405.600006,,2013-05-22 17:42:00,
2013-05-22 11:53:00,49.0,30.0,29.80,SW,235,16.0,21.0,48,-99.99,,,-99.99,450.200012,,2013-05-22 17:53:00,
2013-05-22 12:02:00,50.0,30.0,29.80,SW,226,20.0,24.0,46,-99.99,,,-99.99,562.200012,,2013-05-22 18:02:00,
2013-05-22 12:14:00,51.0,31.0,29.80,SW,229,19.0,24.0,46,-99.99,,,-99.99,578.500000,,2013-05-22 18:14:00,
2013-05-22 12:22:00,51.0,31.0,29.80,SW,231,20.0,26.0,46,-99.99,,,-99.99,604.599976,,2013-05-22 18:22:00,
2013-05-22 12:33:00,51.0,30.0,29.80,SW,230,21.0,25.0,45,-99.99,,,-99.99,518.900024,,2013-05-22 18:33:00,
2013-05-22 12:41:00,50.0,30.0,29.80,SW,233,19.0,24.0,46,-99.99,,,-99.99,520.700012,,2013-05-22 18:41:00,
2013-05-22 12:52:00,51.0,31.0,29.80,WSW,237,18.0,23.0,45,-99.99,,,-99.99,640.099976,,2013-05-22 18:52:00,
2013-05-22 13:02:00,52.0,30.0,29.80,SW,235,20.0,27.0,44,-99.99,,,-99.99,592.799988,,2013-05-22 19:02:00,
2013-05-22 13:11:00,51.0,30.0,29.80,WSW,240,19.0,25.0,44,-99.99,,,-99.99,611.700012,,2013-05-22 19:11:00,
2013-05-22 13:21:00,53.0,30.0,29.80,SW,232,22.0,26.0,41,-99.99,,,-99.99,937.000000,,2013-05-22 19:21:00,
2013-05-22 13:31:00,53.0,30.0,29.81,SW,229,21.0,27.0,41,-99.99,,,-99.99,598.000000,,2013-05-22 19:31:00,
2013-05-22 13:41:00,54.0,30.0,29.81,WSW,248,20.0,26.0,40,-99.99,,,-99.99,696.099976,,2013-05-22 19:41:00,
2013-05-22 13:52:00,54.0,31.0,29.80,WSW,252,17.0,24.0,42,-99.99,,,-99.99,793.099976,,2013-05-22 19:52:00,
2013-05-22 14:01:00,54.0,30.0,29.81,WSW,255,19.0,26.0,41,-99.99,,,-99.99,670.299988,,2013-05-22 20:01:00,
2013-05-22 14:11:00,54.0,31.0,29.81,WSW,256,19.0,26.0,41,-99.99,,,-99.99,709.099976,,2013-05-22 20:11:00,
2013-05-22 14:21:00,54.0,30.0,29.81,WSW,242,21.0,26.0,40,-99.99,,,-99.99,730.200012,,2013-05-22 20:21:00,
2013-05-22 14:32:00,54.0,30.0,29.81,WSW,245,19.0,25.0,40,-99.99,,,-99.99,633.700012,,2013-05-22 20:32:00,
2013-05-22 14:41:00,53.0,30.0,29.81,SW,235,21.0,28.0,40,-99.99,,,-99.99,545.799988,,2013-05-22 20:41:00,
2013-05-22 14:51:00,54.0,30.0,29.81,WSW,242,19.0,24.0,40,-99.99,,,-99.99,721.900024,,2013-05-22 20:51:00,
2013-05-22 15:01:00,54.0,29.0,29.81,WSW,240,20.0,25.0,38,-99.99,,,-99.99,535.200012,,2013-05-22 21:01:00,
2013-05-22 15:11:00,54.0,29.0,29.81,WSW,239,19.0,24.0,39,-99.99,,,-99.99,572.200012,,2013-05-22 21:11:00,
2013-05-22 15:21:00,54.0,29.0,29.81,WSW,246,19.0,27.0,38,-99.99,,,-99.99,613.599976,,2013-05-22 21:21:00,
2013-05-22 15:32:00,55.0,30.0,29.81,WSW,256,18.0,25.0,37,-99.99,,,-99.99,799.900024,,2013-05-22 21:32:00,
2013-05-22 15:42:00,55.0,29.0,29.81,WSW,242,21.0,28.0,36,-99.99,,,-99.99,641.599976,,2013-05-22 21:42:00,
2013-05-22 15:52:00,55.0,28.0,29.81,WSW,238,21.0,26.0,36,-99.99,,,-99.99,516.400024,,2013-05-22 21:52:00,
2013-05-22 16:02:00,55.0,29.0,29.81,WSW,237,20.0,26.0,37,-99.99,,,-99.99,465.500000,,2013-05-22 22:02:00,
2013-05-22 16:12:00,54.0,28.0,29.81,WSW,240,22.0,27.0,36,-99.99,,,-99.99,411.399994,,2013-05-22 22:12:00,
2013-05-22 16:22:00,55.0,28.0,29.80,WSW,243,22.0,29.0,36,-99.99,,,-99.99,568.900024,,2013-05-22 22:22:00,
2013-05-22 16:33:00,56.0,28.0,29.80,WSW,242,19.0,26.0,35,-99.99,,,-99.99,503.299988,,2013-05-22 22:33:00,
2013-05-22 16:42:00,55.0,28.0,29.80,SW,236,19.0,25.0,36,-99.99,,,-99.99,377.399994,,2013-05-22 22:42:00,
2013-05-22 16:52:00,55.0,28.0,29.81,WSW,243,20.0,26.0,34,-99.99,,,-99.99,364.100006,,2013-05-22 22:52:00,
2013-05-22 17:02:00,54.0,25.0,29.81,WSW,254,21.0,27.0,32,-99.99,,,-99.99,317.500000,,2013-05-22 23:02:00,
2013-05-22 17:12:00,54.0,25.0,29.81,WSW,249,20.0,28.0,32,-99.99,,,-99.99,309.700012,,2013-05-22 23:12:00,
2013-05-22 17:21:00,53.0,25.0,29.82,West,260,17.0,23.0,33,-99.99,,,-99.99,321.799988,,2013-05-22 23:21:00,
2013-05-22 17:32:00,53.0,25.0,29.82,West,260,16.0,22.0,34,-99.99,,,-99.99,276.200012,,2013-05-22 23:32:00,
2013-05-22 17:42:00,52.0,25.0,29.82,WSW,251,17.0,22.0,34,-99.99,,,-99.99,229.899994,,2013-05-22 23:42:00,
2013-05-22 17:52:00,52.0,25.0,29.82,WSW,256,15.0,22.0,35,-99.99,,,-99.99,229.399994,,2013-05-22 23:52:00,
2013-05-22 18:01:00,52.0,24.0,29.82,WSW,256,17.0,24.0,33,-99.99,,,-99.99,224.199997,,2013-05-23 00:01:00,
2013-05-22 18:11:00,51.0,23.0,29.84,WSW,253,17.0,25.0,33,-99.99,,,-99.99,198.100006,,2013-05-23 00:11:00,
2013-05-22 18:21:00,51.0,22.0,29.85,WSW,249,19.0,25.0,32,-99.99,,,-99.99,142.600006,,2013-05-23 00:21:00,
2013-05-22 18:31:00,50.0,20.0,29.86,WSW,246,20.0,26.0,30,-99.99,,,-99.99,109.099998,,2013-05-23 00:31:00,
2013-05-22 18:41:00,50.0,21.0,29.85,WSW,242,14.0,22.0,31,-99.99,,,-99.99,122.099998,,2013-05-23 00:41:00,
2013-05-22 18:51:00,50.0,20.0,29.84,WSW,240,14.0,18.0,31,-99.99,,,-99.99,100.300003,,2013-05-23 00:51:00,
2013-05-22 19:01:00,49.0,20.0,29.85,SW,234,15.0,21.0,31,-99.99,,,-99.99,77.699997,,2013-05-23 01:01:00,
2013-05-22 19:11:00,49.0,19.0,29.86,SW,234,14.0,19.0,30,-99.99,,,-99.99,53.599998,,2013-05-23 01:11:00,
2013-05-22 19:21:00,49.0,20.0,29.86,SW,226,12.0,15.0,31,-99.99,,,-99.99,41.099998,,2013-05-23 01:21:00,
2013-05-22 19:32:00,49.0,21.0,29.84,SW,223,9.0,13.0,32,-99.99,,,-99.99,46.700001,,2013-05-23 01:32:00,
2013-05-22 19:41:00,48.0,23.0,29.84,SSW,211,9.0,12.0,37,-99.99,,,-99.99,52.599998,,2013-05-23 01:41:00,
2013-05-22 19:52:00,48.0,24.0,29.84,SW,215,10.0,12.0,39,-99.99,,,-99.99,53.799999,,2013-05-23 01:52:00,
2013-05-22 20:01:00,47.0,26.0,29.86,SSW,208,12.0,14.0,42,-99.99,,,-99.99,38.400002,,2013-05-23 02:01:00,
2013-05-22 20:11:00,47.0,25.0,29.87,SSW,208,13.0,16.0,43,-99.99,,,-99.99,24.299999,,2013-05-23 02:11:00,
2013-05-22 20:21:00,47.0,25.0,29.86,SW,214,11.0,15.0,43,-99.99,,,-99.99,16.700001,,2013-05-23 02:21:00,
2013-05-22 20:31:00,46.0,27.0,29.86,SW,219,8.0,10.0,45,-99.99,,,-99.99,13.200000,,2013-05-23 02:31:00,
2013-05-22 20:42:00,46.0,27.0,29.86,SW,219,8.0,10.0,45,-99.99,,,-99.99,13.200000,,2013-05-23 02:42:00,
2013-05-22 20:51:00,46.0,27.0,29.86,SW,219,8.0,10.0,45,-99.99,,,-99.99,13.200000,,2013-05-23 02:51:00,
2013-05-22 21:01:00,47.0,24.0,29.86,WSW,251,9.0,12.0,40,-99.99,,,-99.99,1.600000,,2013-05-23 03:01:00,
2013-05-22 21:11:00,47.0,23.0,29.86,WSW,246,7.0,9.0,39,-99.99,,,-99.99,0.700000,,2013-05-23 03:11:00,
2013-05-22 21:21:00,45.0,25.0,29.87,SW,235,9.0,12.0,45,-99.99,,,-99.99,0.200000,,2013-05-23 03:21:00,
2013-05-22 21:33:00,47.0,22.0,29.88,WSW,251,14.0,18.0,37,-99.99,,,-99.99,0.000000,,2013-05-23 03:33:00,
2013-05-22 21:43:00,47.0,21.0,29.89,West,264,12.0,16.0,35,-99.99,,,-99.99,-0.100000,,2013-05-23 03:43:00,
2013-05-22 21:53:00,47.0,22.0,29.89,West,264,12.0,16.0,37,-99.99,,,-99.99,-0.100000,,2013-05-23 03:53:00,
2013-05-22 22:02:00,47.0,22.0,29.89,West,267,9.0,11.0,38,-99.99,,,-99.99,-0.100000,,2013-05-23 04:02:00,
2013-05-22 22:11:00,46.0,23.0,29.88,WNW,282,11.0,22.0,39,-99.99,,,-99.99,0.000000,,2013-05-23 04:11:00,
2013-05-22 22:22:00,47.0,22.0,29.90,West,276,15.0,19.0,37,-99.99,,,-99.99,-0.100000,,2013-05-23 04:22:00,
2013-05-22 22:33:00,46.0,23.0,29.90,West,275,11.0,16.0,40,-99.99,,,-99.99,-0.100000,,2013-05-23 04:33:00,
2013-05-22 22:42:00,45.0,25.0,29.91,West,266,11.0,20.0,44,-99.99,,,-99.99,0.000000,,2013-05-23 04:42:00,
2013-05-22 22:52:00,45.0,24.0,29.91,West,273,13.0,18.0,43,-99.99,,,-99.99,-0.100000,,2013-05-23 04:52:00,
2013-05-22 23:02:00,44.0,25.0,29.92,West,280,13.0,16.0,47,-99.99,,,-99.99,-0.100000,,2013-05-23 05:02:00,
2013-05-22 23:11:00,44.0,25.0,29.92,West,269,9.0,12.0,48,-99.99,,,-99.99,0.000000,,2013-05-23 05:11:00,
2013-05-22 23:21:00,43.0,27.0,29.92,West,263,8.0,11.0,52,-99.99,,,-99.99,-0.100000,,2013-05-23 05:21:00,
2013-05-22 23:32:00,42.0,28.0,29.92,WSW,252,6.0,8.0,55,-99.99,,,-99.99,0.000000,,2013-05-23 05:32:00,
2013-05-22 23:42:00,42.0,29.0,29.92,West,260,5.0,7.0,59,-99.99,,,-99.99,-0.100000,,2013-05-23 05:42:00,
2013-05-22 23:52:00,42.0,27.0,29.93,WNW,282,19.0,26.0,54,-99.99,,,-99.99,-0.100000,,2013-05-23 05:52:00,